sensor_id;sensor_type;location;lat;lon;timestamp;temperature;humidity
39825;DHT22;25503;52.532;13.640;2023-05-10T00:00:59;11.60;99.90
39825;DHT22;25503;52.532;13.640;2023-05-10T00:03:24;11.60;99.90
39825;DHT22;25503;52.532;13.640;2023-05-10T00:05:50;11.60;99.90
39825;DHT22;25503;52.532;13.640;2023-05-10T00:08:15;11.50;99.90
39825;DHT22;25503;52.532;13.640;2023-05-10T00:10:41;11.50;99.90
39825;DHT22;25503;52.532;13.640;2023-05-10T00:13:07;11.50;99.90
39825;DHT22;25503;52.532;13.640;2023-05-10T00:15:32;11.40;99.90
39825;DHT22;25503;52.532;13.640;2023-05-10T00:17:58;11.40;99.90
39825;DHT22;25503;52.532;13.640;2023-05-10T00:20:23;11.40;99.90
39825;DHT22;25503;52.532;13.640;2023-05-10T00:22:49;11.40;99.90
39825;DHT22;25503;52.532;13.640;2023-05-10T00:25:14;11.30;99.90
39825;DHT22;25503;52.532;13.640;2023-05-10T00:27:40;11.30;99.90
39825;DHT22;25503;52.532;13.640;2023-05-10T00:30:06;11.30;99.90
39825;DHT22;25503;52.532;13.640;2023-05-10T00:32:32;11.30;99.90
39825;DHT22;25503;52.532;13.640;2023-05-10T00:34:58;11.30;99.90
39825;DHT22;25503;52.532;13.640;2023-05-10T00:37:24;11.30;99.90
39825;DHT22;25503;52.532;13.640;2023-05-10T00:39:49;11.30;99.90
39825;DHT22;25503;52.532;13.640;2023-05-10T00:42:15;11.20;99.90
39825;DHT22;25503;52.532;13.640;2023-05-10T00:44:41;11.20;99.90
39825;DHT22;25503;52.532;13.640;2023-05-10T00:47:06;11.20;99.90
39825;DHT22;25503;52.532;13.640;2023-05-10T00:49:32;11.20;99.90
39825;DHT22;25503;52.532;13.640;2023-05-10T00:51:58;11.20;99.90
39825;DHT22;25503;52.532;13.640;2023-05-10T00:54:24;11.10;99.90
39825;DHT22;25503;52.532;13.640;2023-05-10T00:56:51;11.10;99.90
39825;DHT22;25503;52.532;13.640;2023-05-10T00:59:16;11.10;99.90
39825;DHT22;25503;52.532;13.640;2023-05-10T01:01:44;11.10;99.90
39825;DHT22;25503;52.532;13.640;2023-05-10T01:04:11;11.10;99.90
39825;DHT22;25503;52.532;13.640;2023-05-10T01:06:39;11.00;99.90
39825;DHT22;25503;52.532;13.640;2023-05-10T01:09:04;11.00;99.90
39825;DHT22;25503;52.532;13.640;2023-05-10T01:11:35;11.00;99.90
39825;DHT22;25503;52.532;13.640;2023-05-10T01:14:02;11.00;99.90
39825;DHT22;25503;52.532;13.640;2023-05-10T01:16:31;11.00;99.90
39825;DHT22;25503;52.532;13.640;2023-05-10T01:18:58;11.00;99.90
39825;DHT22;25503;52.532;13.640;2023-05-10T01:21:38;10.90;99.90
39825;DHT22;25503;52.532;13.640;2023-05-10T01:27:41;10.90;99.90
39825;DHT22;25503;52.532;13.640;2023-05-10T01:35:57;10.90;99.90
39825;DHT22;25503;52.532;13.640;2023-05-10T01:38:56;10.80;99.90
39825;DHT22;25503;52.532;13.640;2023-05-10T01:46:43;10.80;99.90
39825;DHT22;25503;52.532;13.640;2023-05-10T01:49:23;10.80;99.90
39825;DHT22;25503;52.532;13.640;2023-05-10T01:51:51;10.80;99.90
39825;DHT22;25503;52.532;13.640;2023-05-10T01:54:21;10.80;99.90
39825;DHT22;25503;52.532;13.640;2023-05-10T01:56:56;10.70;99.90
39825;DHT22;25503;52.532;13.640;2023-05-10T01:59:29;10.70;99.90
39825;DHT22;25503;52.532;13.640;2023-05-10T02:01:57;10.70;99.90
39825;DHT22;25503;52.532;13.640;2023-05-10T02:04:24;10.60;99.90
39825;DHT22;25503;52.532;13.640;2023-05-10T02:06:51;10.70;99.90
39825;DHT22;25503;52.532;13.640;2023-05-10T02:09:18;10.60;99.90
39825;DHT22;25503;52.532;13.640;2023-05-10T02:11:45;10.60;99.90
39825;DHT22;25503;52.532;13.640;2023-05-10T02:14:14;10.60;99.90
39825;DHT22;25503;52.532;13.640;2023-05-10T02:16:41;10.60;99.90
39825;DHT22;25503;52.532;13.640;2023-05-10T02:19:09;10.50;99.90
39825;DHT22;25503;52.532;13.640;2023-05-10T02:21:37;10.60;99.90
39825;DHT22;25503;52.532;13.640;2023-05-10T02:24:03;10.50;99.90
39825;DHT22;25503;52.532;13.640;2023-05-10T02:26:31;10.50;99.90
39825;DHT22;25503;52.532;13.640;2023-05-10T02:28:59;10.50;99.90
39825;DHT22;25503;52.532;13.640;2023-05-10T02:31:26;10.50;99.90
39825;DHT22;25503;52.532;13.640;2023-05-10T02:33:53;10.40;99.90
39825;DHT22;25503;52.532;13.640;2023-05-10T02:36:20;10.40;99.90
39825;DHT22;25503;52.532;13.640;2023-05-10T02:38:47;10.40;99.90
39825;DHT22;25503;52.532;13.640;2023-05-10T02:41:13;10.40;99.90
39825;DHT22;25503;52.532;13.640;2023-05-10T02:43:40;10.40;99.90
39825;DHT22;25503;52.532;13.640;2023-05-10T02:46:07;10.40;99.90
39825;DHT22;25503;52.532;13.640;2023-05-10T02:48:33;10.30;99.90
39825;DHT22;25503;52.532;13.640;2023-05-10T02:51:04;10.30;99.90
39825;DHT22;25503;52.532;13.640;2023-05-10T02:53:32;10.30;99.90
39825;DHT22;25503;52.532;13.640;2023-05-10T02:56:00;10.30;99.90
39825;DHT22;25503;52.532;13.640;2023-05-10T02:58:27;10.30;99.90
39825;DHT22;25503;52.532;13.640;2023-05-10T03:00:52;10.20;99.90
39825;DHT22;25503;52.532;13.640;2023-05-10T03:03:19;10.20;99.90
39825;DHT22;25503;52.532;13.640;2023-05-10T03:05:45;10.20;99.90
39825;DHT22;25503;52.532;13.640;2023-05-10T03:08:11;10.20;99.90
39825;DHT22;25503;52.532;13.640;2023-05-10T03:10:41;10.20;99.90
39825;DHT22;25503;52.532;13.640;2023-05-10T03:16:07;10.20;99.90
39825;DHT22;25503;52.532;13.640;2023-05-10T03:18:56;10.20;99.90
39825;DHT22;25503;52.532;13.640;2023-05-10T03:21:29;10.20;99.90
39825;DHT22;25503;52.532;13.640;2023-05-10T03:24:13;10.10;99.90
39825;DHT22;25503;52.532;13.640;2023-05-10T03:26:43;10.10;99.90
39825;DHT22;25503;52.532;13.640;2023-05-10T03:29:11;10.10;99.90
39825;DHT22;25503;52.532;13.640;2023-05-10T03:31:38;10.00;99.90
39825;DHT22;25503;52.532;13.640;2023-05-10T03:34:04;10.00;99.90
39825;DHT22;25503;52.532;13.640;2023-05-10T03:36:29;10.00;99.90
39825;DHT22;25503;52.532;13.640;2023-05-10T03:38:55;10.00;99.90
39825;DHT22;25503;52.532;13.640;2023-05-10T03:41:21;10.00;99.90
39825;DHT22;25503;52.532;13.640;2023-05-10T03:43:46;10.00;99.90
39825;DHT22;25503;52.532;13.640;2023-05-10T03:46:12;10.00;99.90
39825;DHT22;25503;52.532;13.640;2023-05-10T03:48:37;9.90;99.90
39825;DHT22;25503;52.532;13.640;2023-05-10T03:51:03;10.00;99.90
39825;DHT22;25503;52.532;13.640;2023-05-10T03:53:29;9.90;99.90
39825;DHT22;25503;52.532;13.640;2023-05-10T03:55:54;9.90;99.90
39825;DHT22;25503;52.532;13.640;2023-05-10T03:58:20;9.90;99.90
39825;DHT22;25503;52.532;13.640;2023-05-10T04:00:45;9.90;99.90
39825;DHT22;25503;52.532;13.640;2023-05-10T04:03:12;9.90;99.90
39825;DHT22;25503;52.532;13.640;2023-05-10T04:05:38;9.80;99.90
39825;DHT22;25503;52.532;13.640;2023-05-10T04:08:04;9.80;99.90
39825;DHT22;25503;52.532;13.640;2023-05-10T04:10:30;9.80;99.90
39825;DHT22;25503;52.532;13.640;2023-05-10T04:12:56;9.80;99.90
39825;DHT22;25503;52.532;13.640;2023-05-10T04:15:22;9.90;99.90
39825;DHT22;25503;52.532;13.640;2023-05-10T04:17:48;9.90;99.90
39825;DHT22;25503;52.532;13.640;2023-05-10T04:20:13;9.90;99.90
39825;DHT22;25503;52.532;13.640;2023-05-10T04:22:39;9.90;99.90
39825;DHT22;25503;52.532;13.640;2023-05-10T04:25:05;10.00;99.90
39825;DHT22;25503;52.532;13.640;2023-05-10T04:27:31;10.00;99.90
39825;DHT22;25503;52.532;13.640;2023-05-10T04:29:57;10.10;99.90
39825;DHT22;25503;52.532;13.640;2023-05-10T04:32:23;10.10;99.90
39825;DHT22;25503;52.532;13.640;2023-05-10T04:34:48;10.10;99.90
39825;DHT22;25503;52.532;13.640;2023-05-10T04:37:14;10.10;99.90
39825;DHT22;25503;52.532;13.640;2023-05-10T04:39:40;10.20;99.90
39825;DHT22;25503;52.532;13.640;2023-05-10T04:42:05;10.30;99.90
39825;DHT22;25503;52.532;13.640;2023-05-10T04:44:34;10.40;99.90
39825;DHT22;25503;52.532;13.640;2023-05-10T04:46:59;10.40;99.90
39825;DHT22;25503;52.532;13.640;2023-05-10T04:49:25;10.50;99.90
39825;DHT22;25503;52.532;13.640;2023-05-10T04:51:51;10.60;99.90
39825;DHT22;25503;52.532;13.640;2023-05-10T04:54:16;10.70;99.90
39825;DHT22;25503;52.532;13.640;2023-05-10T04:56:42;10.70;99.90
39825;DHT22;25503;52.532;13.640;2023-05-10T04:59:07;10.80;99.90
39825;DHT22;25503;52.532;13.640;2023-05-10T05:01:33;10.90;99.90
39825;DHT22;25503;52.532;13.640;2023-05-10T05:03:59;11.00;99.90
39825;DHT22;25503;52.532;13.640;2023-05-10T05:06:25;11.10;99.90
39825;DHT22;25503;52.532;13.640;2023-05-10T05:08:52;11.20;99.90
39825;DHT22;25503;52.532;13.640;2023-05-10T05:11:18;11.20;99.90
39825;DHT22;25503;52.532;13.640;2023-05-10T05:13:43;11.30;99.90
39825;DHT22;25503;52.532;13.640;2023-05-10T05:16:09;11.40;99.90
39825;DHT22;25503;52.532;13.640;2023-05-10T05:18:36;11.50;99.90
39825;DHT22;25503;52.532;13.640;2023-05-10T05:21:01;11.60;99.90
39825;DHT22;25503;52.532;13.640;2023-05-10T05:23:27;11.60;99.90
39825;DHT22;25503;52.532;13.640;2023-05-10T05:25:53;11.80;99.90
39825;DHT22;25503;52.532;13.640;2023-05-10T05:28:20;11.80;99.90
39825;DHT22;25503;52.532;13.640;2023-05-10T05:30:45;11.90;99.90
39825;DHT22;25503;52.532;13.640;2023-05-10T05:33:12;12.00;99.90
39825;DHT22;25503;52.532;13.640;2023-05-10T05:35:38;12.10;99.90
39825;DHT22;25503;52.532;13.640;2023-05-10T05:38:04;12.20;99.90
39825;DHT22;25503;52.532;13.640;2023-05-10T05:40:29;12.30;99.90
39825;DHT22;25503;52.532;13.640;2023-05-10T05:42:55;12.40;99.90
39825;DHT22;25503;52.532;13.640;2023-05-10T05:45:20;12.50;99.90
39825;DHT22;25503;52.532;13.640;2023-05-10T05:47:46;12.50;99.90
39825;DHT22;25503;52.532;13.640;2023-05-10T05:50:12;12.70;99.90
39825;DHT22;25503;52.532;13.640;2023-05-10T05:52:38;12.70;99.90
39825;DHT22;25503;52.532;13.640;2023-05-10T05:55:04;12.80;99.90
39825;DHT22;25503;52.532;13.640;2023-05-10T05:57:30;12.90;99.90
39825;DHT22;25503;52.532;13.640;2023-05-10T05:59:55;13.00;99.90
39825;DHT22;25503;52.532;13.640;2023-05-10T06:02:21;13.10;99.90
39825;DHT22;25503;52.532;13.640;2023-05-10T06:04:47;13.20;99.90
39825;DHT22;25503;52.532;13.640;2023-05-10T06:07:12;13.20;99.90
39825;DHT22;25503;52.532;13.640;2023-05-10T06:09:38;13.40;99.90
39825;DHT22;25503;52.532;13.640;2023-05-10T06:12:04;13.50;99.90
39825;DHT22;25503;52.532;13.640;2023-05-10T06:14:29;13.60;99.90
39825;DHT22;25503;52.532;13.640;2023-05-10T06:16:55;13.70;99.90
39825;DHT22;25503;52.532;13.640;2023-05-10T06:19:20;13.80;99.90
39825;DHT22;25503;52.532;13.640;2023-05-10T06:21:46;13.90;99.90
39825;DHT22;25503;52.532;13.640;2023-05-10T06:24:11;14.00;99.90
39825;DHT22;25503;52.532;13.640;2023-05-10T06:26:37;14.10;99.90
39825;DHT22;25503;52.532;13.640;2023-05-10T06:29:03;14.20;99.90
39825;DHT22;25503;52.532;13.640;2023-05-10T06:31:28;14.30;99.90
39825;DHT22;25503;52.532;13.640;2023-05-10T06:33:54;14.40;99.90
39825;DHT22;25503;52.532;13.640;2023-05-10T06:36:21;14.50;99.90
39825;DHT22;25503;52.532;13.640;2023-05-10T06:38:47;14.60;99.90
39825;DHT22;25503;52.532;13.640;2023-05-10T06:41:13;14.70;99.90
39825;DHT22;25503;52.532;13.640;2023-05-10T06:43:38;14.80;99.90
39825;DHT22;25503;52.532;13.640;2023-05-10T06:46:06;14.90;99.90
39825;DHT22;25503;52.532;13.640;2023-05-10T06:48:32;15.00;99.90
39825;DHT22;25503;52.532;13.640;2023-05-10T06:50:58;15.10;99.90
39825;DHT22;25503;52.532;13.640;2023-05-10T06:53:23;15.10;99.90
39825;DHT22;25503;52.532;13.640;2023-05-10T06:55:50;15.20;99.90
39825;DHT22;25503;52.532;13.640;2023-05-10T06:58:16;15.30;99.90
39825;DHT22;25503;52.532;13.640;2023-05-10T07:00:41;15.40;99.90
39825;DHT22;25503;52.532;13.640;2023-05-10T07:03:09;15.50;99.90
39825;DHT22;25503;52.532;13.640;2023-05-10T07:05:35;15.50;99.90
39825;DHT22;25503;52.532;13.640;2023-05-10T07:08:01;15.60;99.90
39825;DHT22;25503;52.532;13.640;2023-05-10T07:10:27;15.70;99.90
39825;DHT22;25503;52.532;13.640;2023-05-10T07:12:52;15.70;99.90
39825;DHT22;25503;52.532;13.640;2023-05-10T07:15:18;15.80;99.90
39825;DHT22;25503;52.532;13.640;2023-05-10T07:17:45;15.80;99.90
39825;DHT22;25503;52.532;13.640;2023-05-10T07:20:11;15.90;99.90
39825;DHT22;25503;52.532;13.640;2023-05-10T07:22:37;16.00;99.90
39825;DHT22;25503;52.532;13.640;2023-05-10T07:25:03;16.00;99.90
39825;DHT22;25503;52.532;13.640;2023-05-10T07:27:30;16.10;99.90
39825;DHT22;25503;52.532;13.640;2023-05-10T07:29:55;16.20;99.90
39825;DHT22;25503;52.532;13.640;2023-05-10T07:32:21;16.30;99.90
39825;DHT22;25503;52.532;13.640;2023-05-10T07:34:47;16.40;99.90
39825;DHT22;25503;52.532;13.640;2023-05-10T07:37:13;16.50;99.90
39825;DHT22;25503;52.532;13.640;2023-05-10T07:39:38;16.50;99.90
39825;DHT22;25503;52.532;13.640;2023-05-10T07:42:04;16.50;99.90
39825;DHT22;25503;52.532;13.640;2023-05-10T07:44:31;16.60;99.90
39825;DHT22;25503;52.532;13.640;2023-05-10T07:46:56;16.70;99.90
39825;DHT22;25503;52.532;13.640;2023-05-10T07:49:22;16.80;99.90
39825;DHT22;25503;52.532;13.640;2023-05-10T07:51:49;16.90;99.90
39825;DHT22;25503;52.532;13.640;2023-05-10T07:54:15;17.00;99.90
39825;DHT22;25503;52.532;13.640;2023-05-10T07:56:41;17.10;99.90
39825;DHT22;25503;52.532;13.640;2023-05-10T07:59:15;17.20;99.90
39825;DHT22;25503;52.532;13.640;2023-05-10T08:01:43;17.40;99.90
39825;DHT22;25503;52.532;13.640;2023-05-10T08:04:09;17.50;99.90
39825;DHT22;25503;52.532;13.640;2023-05-10T08:06:35;17.60;99.90
39825;DHT22;25503;52.532;13.640;2023-05-10T08:09:01;17.60;99.90
39825;DHT22;25503;52.532;13.640;2023-05-10T08:11:26;17.70;99.90
39825;DHT22;25503;52.532;13.640;2023-05-10T08:13:53;17.80;99.90
39825;DHT22;25503;52.532;13.640;2023-05-10T08:16:19;18.00;99.90
39825;DHT22;25503;52.532;13.640;2023-05-10T08:18:46;18.10;99.90
39825;DHT22;25503;52.532;13.640;2023-05-10T08:21:15;18.20;99.90
39825;DHT22;25503;52.532;13.640;2023-05-10T08:23:41;18.20;99.90
39825;DHT22;25503;52.532;13.640;2023-05-10T08:26:08;18.30;99.90
39825;DHT22;25503;52.532;13.640;2023-05-10T08:28:34;18.50;99.90
39825;DHT22;25503;52.532;13.640;2023-05-10T08:31:00;18.70;99.90
39825;DHT22;25503;52.532;13.640;2023-05-10T08:33:25;18.80;99.90
39825;DHT22;25503;52.532;13.640;2023-05-10T08:35:51;19.00;99.90
39825;DHT22;25503;52.532;13.640;2023-05-10T08:38:18;19.10;99.90
39825;DHT22;25503;52.532;13.640;2023-05-10T08:40:44;19.20;99.90
39825;DHT22;25503;52.532;13.640;2023-05-10T08:43:12;19.40;99.90
39825;DHT22;25503;52.532;13.640;2023-05-10T08:45:39;19.50;99.90
39825;DHT22;25503;52.532;13.640;2023-05-10T08:48:07;19.60;99.90
39825;DHT22;25503;52.532;13.640;2023-05-10T08:50:36;19.80;99.90
39825;DHT22;25503;52.532;13.640;2023-05-10T08:53:04;20.00;99.90
39825;DHT22;25503;52.532;13.640;2023-05-10T08:55:30;20.10;99.90
39825;DHT22;25503;52.532;13.640;2023-05-10T08:57:58;20.20;99.90
39825;DHT22;25503;52.532;13.640;2023-05-10T09:00:24;20.20;99.90
39825;DHT22;25503;52.532;13.640;2023-05-10T09:02:50;20.20;99.90
39825;DHT22;25503;52.532;13.640;2023-05-10T09:05:16;20.40;99.90
39825;DHT22;25503;52.532;13.640;2023-05-10T09:07:43;20.40;99.90
39825;DHT22;25503;52.532;13.640;2023-05-10T09:10:09;20.50;99.90
39825;DHT22;25503;52.532;13.640;2023-05-10T09:12:36;20.60;99.90
39825;DHT22;25503;52.532;13.640;2023-05-10T09:15:02;20.60;99.90
39825;DHT22;25503;52.532;13.640;2023-05-10T09:17:31;20.70;99.90
39825;DHT22;25503;52.532;13.640;2023-05-10T09:20:01;20.80;99.90
39825;DHT22;25503;52.532;13.640;2023-05-10T09:22:28;20.80;99.90
39825;DHT22;25503;52.532;13.640;2023-05-10T09:25:10;20.80;99.90
39825;DHT22;25503;52.532;13.640;2023-05-10T09:27:37;20.80;99.90
39825;DHT22;25503;52.532;13.640;2023-05-10T09:30:05;20.90;99.90
39825;DHT22;25503;52.532;13.640;2023-05-10T09:32:43;20.80;99.90
39825;DHT22;25503;52.532;13.640;2023-05-10T09:35:12;20.90;99.90
39825;DHT22;25503;52.532;13.640;2023-05-10T09:37:39;21.00;99.90
39825;DHT22;25503;52.532;13.640;2023-05-10T09:40:08;21.10;99.90
39825;DHT22;25503;52.532;13.640;2023-05-10T09:42:36;21.20;99.90
39825;DHT22;25503;52.532;13.640;2023-05-10T09:45:05;21.40;99.90
39825;DHT22;25503;52.532;13.640;2023-05-10T09:47:33;21.50;99.90
39825;DHT22;25503;52.532;13.640;2023-05-10T09:49:59;21.60;99.90
39825;DHT22;25503;52.532;13.640;2023-05-10T09:52:30;21.80;99.90
39825;DHT22;25503;52.532;13.640;2023-05-10T09:54:56;21.90;99.90
39825;DHT22;25503;52.532;13.640;2023-05-10T09:57:23;22.00;99.90
39825;DHT22;25503;52.532;13.640;2023-05-10T09:59:49;22.10;99.90
39825;DHT22;25503;52.532;13.640;2023-05-10T10:02:16;22.10;99.90
39825;DHT22;25503;52.532;13.640;2023-05-10T10:04:42;22.20;99.90
39825;DHT22;25503;52.532;13.640;2023-05-10T10:07:08;22.30;99.90
39825;DHT22;25503;52.532;13.640;2023-05-10T10:09:34;22.40;99.90
39825;DHT22;25503;52.532;13.640;2023-05-10T10:12:04;22.40;99.90
39825;DHT22;25503;52.532;13.640;2023-05-10T10:14:30;22.30;99.90
39825;DHT22;25503;52.532;13.640;2023-05-10T10:16:55;22.40;99.90
39825;DHT22;25503;52.532;13.640;2023-05-10T10:19:22;22.40;99.90
39825;DHT22;25503;52.532;13.640;2023-05-10T10:21:49;22.50;99.90
39825;DHT22;25503;52.532;13.640;2023-05-10T10:24:15;22.70;99.90
39825;DHT22;25503;52.532;13.640;2023-05-10T10:26:42;22.80;99.90
39825;DHT22;25503;52.532;13.640;2023-05-10T10:29:20;22.90;99.90
39825;DHT22;25503;52.532;13.640;2023-05-10T10:34:27;23.10;99.90
39825;DHT22;25503;52.532;13.640;2023-05-10T10:36:56;22.90;99.90
39825;DHT22;25503;52.532;13.640;2023-05-10T10:39:26;22.90;99.90
39825;DHT22;25503;52.532;13.640;2023-05-10T10:41:53;23.10;99.90
39825;DHT22;25503;52.532;13.640;2023-05-10T10:49:28;23.10;99.90
39825;DHT22;25503;52.532;13.640;2023-05-10T10:55:05;23.30;99.90
39825;DHT22;25503;52.532;13.640;2023-05-10T10:57:53;23.40;99.90
39825;DHT22;25503;52.532;13.640;2023-05-10T11:00:28;23.40;99.90
39825;DHT22;25503;52.532;13.640;2023-05-10T11:03:09;23.40;99.90
39825;DHT22;25503;52.532;13.640;2023-05-10T11:05:46;23.50;99.90
39825;DHT22;25503;52.532;13.640;2023-05-10T11:08:32;23.50;99.90
39825;DHT22;25503;52.532;13.640;2023-05-10T11:13:33;23.60;99.90
39825;DHT22;25503;52.532;13.640;2023-05-10T11:16:10;23.80;99.90
39825;DHT22;25503;52.532;13.640;2023-05-10T11:18:36;24.00;99.90
39825;DHT22;25503;52.532;13.640;2023-05-10T11:21:03;24.10;99.90
39825;DHT22;25503;52.532;13.640;2023-05-10T11:23:49;24.40;99.90
39825;DHT22;25503;52.532;13.640;2023-05-10T11:26:17;24.50;99.90
39825;DHT22;25503;52.532;13.640;2023-05-10T11:28:48;24.50;99.90
39825;DHT22;25503;52.532;13.640;2023-05-10T11:31:18;24.60;99.90
39825;DHT22;25503;52.532;13.640;2023-05-10T11:33:48;24.70;99.90
39825;DHT22;25503;52.532;13.640;2023-05-10T11:36:15;24.80;99.90
39825;DHT22;25503;52.532;13.640;2023-05-10T11:38:41;24.70;99.90
39825;DHT22;25503;52.532;13.640;2023-05-10T11:41:08;24.70;99.90
39825;DHT22;25503;52.532;13.640;2023-05-10T11:43:35;24.70;99.90
39825;DHT22;25503;52.532;13.640;2023-05-10T11:46:06;24.80;99.90
39825;DHT22;25503;52.532;13.640;2023-05-10T11:48:32;24.80;99.90
39825;DHT22;25503;52.532;13.640;2023-05-10T11:50:58;24.70;99.90
39825;DHT22;25503;52.532;13.640;2023-05-10T11:53:28;24.70;99.90
39825;DHT22;25503;52.532;13.640;2023-05-10T11:55:54;24.70;99.90
39825;DHT22;25503;52.532;13.640;2023-05-10T11:58:20;24.80;99.90
39825;DHT22;25503;52.532;13.640;2023-05-10T12:00:46;24.80;99.90
39825;DHT22;25503;52.532;13.640;2023-05-10T12:03:12;24.90;99.90
39825;DHT22;25503;52.532;13.640;2023-05-10T12:05:38;25.00;99.90
39825;DHT22;25503;52.532;13.640;2023-05-10T12:08:19;25.20;99.90
39825;DHT22;25503;52.532;13.640;2023-05-10T12:10:45;25.20;99.90
39825;DHT22;25503;52.532;13.640;2023-05-10T12:13:12;25.30;99.90
39825;DHT22;25503;52.532;13.640;2023-05-10T12:15:41;25.60;99.90
39825;DHT22;25503;52.532;13.640;2023-05-10T12:18:14;25.50;99.90
39825;DHT22;25503;52.532;13.640;2023-05-10T12:20:40;25.60;99.90
39825;DHT22;25503;52.532;13.640;2023-05-10T12:23:08;25.80;99.80
39825;DHT22;25503;52.532;13.640;2023-05-10T12:25:36;25.70;99.90
39825;DHT22;25503;52.532;13.640;2023-05-10T12:28:09;25.70;99.90
39825;DHT22;25503;52.532;13.640;2023-05-10T12:30:36;25.70;98.90
39825;DHT22;25503;52.532;13.640;2023-05-10T12:33:13;25.40;99.40
39825;DHT22;25503;52.532;13.640;2023-05-10T12:35:48;25.50;99.90
39825;DHT22;25503;52.532;13.640;2023-05-10T12:38:34;25.30;99.00
39825;DHT22;25503;52.532;13.640;2023-05-10T12:41:01;25.20;99.80
39825;DHT22;25503;52.532;13.640;2023-05-10T12:43:27;25.30;99.90
39825;DHT22;25503;52.532;13.640;2023-05-10T12:45:53;25.40;99.30
39825;DHT22;25503;52.532;13.640;2023-05-10T12:48:19;25.50;98.90
39825;DHT22;25503;52.532;13.640;2023-05-10T12:50:45;25.50;99.40
39825;DHT22;25503;52.532;13.640;2023-05-10T12:53:11;25.40;98.80
39825;DHT22;25503;52.532;13.640;2023-05-10T12:55:38;25.50;98.20
39825;DHT22;25503;52.532;13.640;2023-05-10T12:58:04;25.50;98.60
39825;DHT22;25503;52.532;13.640;2023-05-10T13:00:30;25.60;98.50
39825;DHT22;25503;52.532;13.640;2023-05-10T13:02:55;25.50;98.20
39825;DHT22;25503;52.532;13.640;2023-05-10T13:05:21;25.50;97.40
39825;DHT22;25503;52.532;13.640;2023-05-10T13:07:46;25.40;97.90
39825;DHT22;25503;52.532;13.640;2023-05-10T13:10:12;25.30;97.20
39825;DHT22;25503;52.532;13.640;2023-05-10T13:12:37;25.20;97.10
39825;DHT22;25503;52.532;13.640;2023-05-10T13:15:03;25.20;97.40
39825;DHT22;25503;52.532;13.640;2023-05-10T13:17:29;25.30;97.60
39825;DHT22;25503;52.532;13.640;2023-05-10T13:19:55;25.20;97.50
39825;DHT22;25503;52.532;13.640;2023-05-10T13:22:20;25.20;97.20
39825;DHT22;25503;52.532;13.640;2023-05-10T13:24:46;25.20;96.60
39825;DHT22;25503;52.532;13.640;2023-05-10T13:27:12;25.10;96.20
39825;DHT22;25503;52.532;13.640;2023-05-10T13:29:37;25.20;96.90
39825;DHT22;25503;52.532;13.640;2023-05-10T13:32:03;25.00;96.60
39825;DHT22;25503;52.532;13.640;2023-05-10T13:34:28;25.10;96.10
39825;DHT22;25503;52.532;13.640;2023-05-10T13:36:54;25.00;97.40
39825;DHT22;25503;52.532;13.640;2023-05-10T13:39:21;25.00;96.90
39825;DHT22;25503;52.532;13.640;2023-05-10T13:41:47;25.10;97.10
39825;DHT22;25503;52.532;13.640;2023-05-10T13:44:13;25.30;96.30
39825;DHT22;25503;52.532;13.640;2023-05-10T13:46:42;25.20;96.30
39825;DHT22;25503;52.532;13.640;2023-05-10T13:49:09;25.40;97.80
39825;DHT22;25503;52.532;13.640;2023-05-10T13:51:35;25.40;96.60
39825;DHT22;25503;52.532;13.640;2023-05-10T13:54:01;25.60;95.90
39825;DHT22;25503;52.532;13.640;2023-05-10T13:56:27;25.60;94.30
39825;DHT22;25503;52.532;13.640;2023-05-10T13:58:52;25.50;94.50
39825;DHT22;25503;52.532;13.640;2023-05-10T14:01:18;25.40;94.90
39825;DHT22;25503;52.532;13.640;2023-05-10T14:03:44;25.30;94.50
39825;DHT22;25503;52.532;13.640;2023-05-10T14:06:10;25.30;95.50
39825;DHT22;25503;52.532;13.640;2023-05-10T14:08:36;25.30;96.30
39825;DHT22;25503;52.532;13.640;2023-05-10T14:11:02;25.30;95.40
39825;DHT22;25503;52.532;13.640;2023-05-10T14:13:28;25.30;95.50
39825;DHT22;25503;52.532;13.640;2023-05-10T14:15:54;25.20;95.10
39825;DHT22;25503;52.532;13.640;2023-05-10T14:18:20;25.30;94.10
39825;DHT22;25503;52.532;13.640;2023-05-10T14:20:45;25.30;94.70
39825;DHT22;25503;52.532;13.640;2023-05-10T14:23:11;25.20;94.50
39825;DHT22;25503;52.532;13.640;2023-05-10T14:25:40;25.20;94.80
39825;DHT22;25503;52.532;13.640;2023-05-10T14:28:05;25.20;94.20
39825;DHT22;25503;52.532;13.640;2023-05-10T14:30:31;25.00;94.20
39825;DHT22;25503;52.532;13.640;2023-05-10T14:32:58;25.00;94.70
39825;DHT22;25503;52.532;13.640;2023-05-10T14:35:24;25.00;95.00
39825;DHT22;25503;52.532;13.640;2023-05-10T14:37:49;25.00;95.00
39825;DHT22;25503;52.532;13.640;2023-05-10T14:40:15;25.00;94.80
39825;DHT22;25503;52.532;13.640;2023-05-10T14:42:42;25.10;94.80
39825;DHT22;25503;52.532;13.640;2023-05-10T14:45:09;25.10;93.60
39825;DHT22;25503;52.532;13.640;2023-05-10T14:47:35;25.10;94.10
39825;DHT22;25503;52.532;13.640;2023-05-10T14:50:01;25.00;94.20
39825;DHT22;25503;52.532;13.640;2023-05-10T14:52:27;25.00;94.40
39825;DHT22;25503;52.532;13.640;2023-05-10T14:54:53;25.00;94.90
39825;DHT22;25503;52.532;13.640;2023-05-10T14:57:19;25.00;94.70
39825;DHT22;25503;52.532;13.640;2023-05-10T14:59:44;24.90;95.20
39825;DHT22;25503;52.532;13.640;2023-05-10T15:02:10;24.90;94.80
39825;DHT22;25503;52.532;13.640;2023-05-10T15:04:37;24.90;93.40
39825;DHT22;25503;52.532;13.640;2023-05-10T15:07:03;24.80;94.00
39825;DHT22;25503;52.532;13.640;2023-05-10T15:09:28;24.70;93.40
39825;DHT22;25503;52.532;13.640;2023-05-10T15:11:54;24.70;93.90
39825;DHT22;25503;52.532;13.640;2023-05-10T15:14:20;24.70;93.90
39825;DHT22;25503;52.532;13.640;2023-05-10T15:16:46;24.70;94.70
39825;DHT22;25503;52.532;13.640;2023-05-10T15:19:12;24.70;94.20
39825;DHT22;25503;52.532;13.640;2023-05-10T15:21:37;24.60;94.00
39825;DHT22;25503;52.532;13.640;2023-05-10T15:24:07;24.50;94.50
39825;DHT22;25503;52.532;13.640;2023-05-10T15:26:33;24.50;94.30
39825;DHT22;25503;52.532;13.640;2023-05-10T15:29:00;24.50;94.00
39825;DHT22;25503;52.532;13.640;2023-05-10T15:31:25;24.40;93.60
39825;DHT22;25503;52.532;13.640;2023-05-10T15:33:58;24.40;94.60
39825;DHT22;25503;52.532;13.640;2023-05-10T15:36:27;24.30;94.70
39825;DHT22;25503;52.532;13.640;2023-05-10T15:38:54;24.40;94.20
39825;DHT22;25503;52.532;13.640;2023-05-10T15:41:20;24.40;94.10
39825;DHT22;25503;52.532;13.640;2023-05-10T15:43:46;24.30;93.50
39825;DHT22;25503;52.532;13.640;2023-05-10T15:46:11;24.20;94.40
39825;DHT22;25503;52.532;13.640;2023-05-10T15:48:37;24.10;94.30